Santo Antonio do Ica, Brazil
Current Conditions -  °F | °C
As of 8:00 PM on Tuesday 25 Nov 2014 (Local Time) from SKLT Reporting Station
Thunderstorm Thunderstorm  
Wind Chill: 79°   Ceiling: 1500
Heat Index: 83°   Visibility: 4mi
Dew Point: 77°   Wind: 3mph
Humidity: 94%   Direction: 20°NNE
Pressure: 29.78"   Gusts: NA
Location:  3.1°S, 67.94°W
Report Text: SKLT 260000Z 02003KT 7000 TSRA SCT012CB BKN015 26/25 A2978 RMK CB/E/SW
Loading
Personal Weather Stations






























Interactive Weather Map New forecast layout! Learn more

10-Day Weather Forecast

Advertisements
Track Severe Weather on mobile